createdAt,value
2022-11-16T00:05:12.565Z,19.10
2022-11-16T00:15:17.897Z,19.00
2022-11-16T00:25:21.702Z,18.90
2022-11-16T00:35:27.688Z,19.00
2022-11-16T00:45:31.420Z,19.00
2022-11-16T00:55:37.864Z,19.10
2022-11-16T01:05:41.502Z,19.20
2022-11-16T01:15:50.497Z,19.00
2022-11-16T01:25:58.572Z,18.90
2022-11-16T01:36:03.646Z,18.90
2022-11-16T01:46:07.575Z,18.90
2022-11-16T01:56:13.029Z,18.90
2022-11-16T02:06:35.496Z,18.90
2022-11-16T02:16:51.889Z,18.90
2022-11-16T02:27:22.944Z,18.90
2022-11-16T02:37:30.342Z,18.50
2022-11-16T02:47:36.439Z,18.60
2022-11-16T02:57:47.732Z,18.40
2022-11-16T03:07:57.238Z,18.40
2022-11-16T03:18:02.657Z,18.50
2022-11-16T03:28:13.848Z,18.40
2022-11-16T03:38:22.588Z,18.30
2022-11-16T03:48:26.698Z,18.20
2022-11-16T03:58:32.229Z,18.30
2022-11-16T04:08:53.672Z,18.30
2022-11-16T04:19:27.931Z,18.10
2022-11-16T04:29:32.226Z,18.40
2022-11-16T04:39:37.155Z,17.90
2022-11-16T04:49:40.818Z,17.50
2022-11-16T04:59:46.198Z,17.30
2022-11-16T05:09:50.478Z,17.50
2022-11-16T05:20:13.444Z,17.70
2022-11-16T05:30:17.857Z,17.60
2022-11-16T05:40:23.020Z,17.70
2022-11-16T05:50:26.884Z,17.10
2022-11-16T06:00:32.373Z,16.90
2022-11-16T06:10:37.085Z,17.40
2022-11-16T06:20:42.320Z,17.50
2022-11-16T06:30:46.172Z,17.60
2022-11-16T06:40:53.839Z,17.60
2022-11-16T06:50:57.626Z,17.40
2022-11-16T07:01:12.628Z,17.50
2022-11-16T07:11:16.411Z,17.20
2022-11-16T07:21:21.553Z,16.60
2022-11-16T07:31:25.786Z,16.50
2022-11-16T07:41:30.987Z,16.50
2022-11-16T07:51:34.732Z,16.80
2022-11-16T08:01:40.171Z,17.20
2022-11-16T08:11:47.269Z,18.00
2022-11-16T08:21:52.406Z,18.60
2022-11-16T08:31:56.261Z,18.80
2022-11-16T08:42:01.389Z,18.50
2022-11-16T08:52:05.392Z,18.50
2022-11-16T09:02:11.207Z,18.70
2022-11-16T09:12:15.237Z,19.00
2022-11-16T09:22:20.374Z,19.30
2022-11-16T09:32:24.047Z,19.60
2022-11-16T09:42:42.042Z,19.70
2022-11-16T09:52:50.125Z,19.90
2022-11-16T10:03:04.182Z,19.70
2022-11-16T10:13:20.781Z,20.20
2022-11-16T10:23:36.376Z,20.30
2022-11-16T10:33:43.681Z,21.00
2022-11-16T10:43:50.512Z,19.90
2022-11-16T10:53:55.956Z,19.90
2022-11-16T11:04:20.077Z,19.90
2022-11-16T11:14:23.968Z,19.40
2022-11-16T11:24:44.108Z,20.20
2022-11-16T11:34:50.941Z,19.70
2022-11-16T11:45:01.657Z,19.60
2022-11-16T11:55:08.420Z,19.70
2022-11-16T12:05:35.989Z,21.70
2022-11-16T12:15:51.075Z,22.90
2022-11-16T12:26:04.000Z,22.00
2022-11-16T12:36:17.147Z,21.90
2022-11-16T12:46:30.580Z,21.80
2022-11-16T12:56:48.824Z,21.40
2022-11-16T13:06:58.703Z,21.10
2022-11-16T13:17:03.890Z,20.60
2022-11-16T13:27:33.948Z,20.70
2022-11-16T13:37:47.944Z,20.90
2022-11-16T13:47:54.597Z,20.90
2022-11-16T13:58:00.685Z,21.50
2022-11-16T14:08:56.056Z,23.10
2022-11-16T14:19:02.237Z,25.90
2022-11-16T14:29:42.214Z,24.60
2022-11-16T14:39:46.571Z,23.70
2022-11-16T14:49:52.202Z,22.20
2022-11-16T15:00:09.885Z,23.30
2022-11-16T15:10:18.402Z,23.60
2022-11-16T15:20:25.576Z,23.10
2022-11-16T15:30:34.621Z,22.00
2022-11-16T15:40:38.474Z,21.60
2022-11-16T15:51:01.448Z,20.70
2022-11-16T16:01:08.600Z,20.20
2022-11-16T16:11:32.057Z,19.90
2022-11-16T16:21:44.837Z,19.70
2022-11-16T16:31:50.075Z,19.50
2022-11-16T16:41:53.717Z,19.30
2022-11-16T16:51:59.111Z,19.00
2022-11-16T17:02:02.797Z,18.80
2022-11-16T17:12:08.280Z,18.80
2022-11-16T17:22:15.468Z,18.80
2022-11-16T17:32:20.678Z,18.60
2022-11-16T17:42:24.471Z,18.60
2022-11-16T17:52:29.545Z,18.30
2022-11-16T18:02:35.367Z,18.20
2022-11-16T18:12:40.558Z,18.00
2022-11-16T18:22:47.611Z,18.00
2022-11-16T18:32:52.618Z,17.90
2022-11-16T18:42:57.276Z,17.90
2022-11-16T18:53:02.938Z,17.90
2022-11-16T19:03:11.061Z,17.80
2022-11-16T19:13:16.903Z,17.80
2022-11-16T19:23:21.526Z,18.10
2022-11-16T19:33:27.757Z,18.00
2022-11-16T19:43:32.239Z,18.00
2022-11-16T19:53:38.712Z,18.00
2022-11-16T20:03:43.745Z,17.90
2022-11-16T20:13:52.082Z,18.00
2022-11-16T20:24:03.061Z,17.90
2022-11-16T20:34:15.282Z,18.00
2022-11-16T20:44:22.336Z,18.00
2022-11-16T20:54:27.776Z,18.20
2022-11-16T21:04:32.061Z,18.00
2022-11-16T21:14:38.003Z,18.00
2022-11-16T21:24:43.800Z,18.00
2022-11-16T21:34:49.183Z,17.90
2022-11-16T21:44:53.185Z,17.90
2022-11-16T21:55:25.183Z,18.00
2022-11-16T22:05:49.926Z,17.80
2022-11-16T22:15:58.056Z,17.70
2022-11-16T22:26:05.962Z,17.70
2022-11-16T22:36:12.056Z,17.70
2022-11-16T22:46:15.798Z,17.60
2022-11-16T22:56:20.844Z,17.60
2022-11-16T23:06:27.582Z,17.70
2022-11-16T23:16:33.165Z,18.00
2022-11-16T23:26:54.672Z,18.20
2022-11-16T23:37:05.247Z,18.30
2022-11-16T23:47:09.225Z,18.30
2022-11-16T23:57:14.461Z,18.40
